Pagrindinis puslapis
METAR-TAF:

METAR-TAF

Oro uostai :

Kōriyama, Japonija

platuma: 37-24N, ilguma: 140-23E, Aukštis: 372 m

Dabartinis oras

Ataskaita buvo paskelbta 54 minutes, ne 02:00 UTC
Vėjas 13 kt iš Šiaurės
Temperatūra 4°C
Drėgmė 93%
Slėgis 1012 hPa
Matomumas 10 km arba daugiau
Mažai debesys ne aukštis 2000 ft
Išsisklaidę debesys ne aukštis 4500 ft
Su prošvaistėmis ne aukštis 5000 ft
lietus

METAR: RJSF 200200Z 35013KT 9999 -SHRA FEW020 SCT045 BKN050 04/03 Q1012

Laikas: 11:54 (02:54 UTC)

Prognozė

Ataskaita buvo paskelbta 3 valandos ir 43 minutes, ne 23:11 UTC
Prognozė galioja nuo 20 metu 00 UTC su 21 metu 06 UTC
Vėjas 10 kt iš Šiaurės/Šiaurės Vakarų
Matomumas 10 km arba daugiau
Mažai debesys ne aukštis 2000 ft
Su prošvaistėmis ne aukštis 3000 ft
Tapsmas
nuo 20 metu 10 UTC su 20 metu 12 UTC
Vėjas 4 kt iš Pietų/Pietryčių
Tapsmas
nuo 20 metu 18 UTC su 20 metu 21 UTC
Vėjas 15 kt iš Šiaurės Vakarų

TAF: RJSF 192311Z 2000/2106 34010KT 9999 FEW020 BKN030 BECMG 2010/2012 16004KT BECMG 2018/2021 32015KT

Orai ataskaitas ir orų prognozės (METAR, TAF).

turimą stotys yra geltonos ir raudonos taškus žemėlapyje.

Perkelti pele per norėdami pamatyti stoties vardą.

Tada spustelėkite, norėdami matyti oro stebėjimo ir prognozės.

Norėdami pakeisti žemėlapį: spustelėkite ant žalios mygtukų su juodo kryžiaus žemyn,; žalią mygtuką su brūkšneliu, jei norite nutolinti; arba žalių rodyklių gretimoms žemėlapius.


METAR-TAF: